Time;durP1;ratioP1;P1;durP2;ratioP2;P2;SDS_P1;SDS_P2;PMS_P1;PMS_P2;Temp;Humidity;BMP_temperature;BMP_pressure;BME280_temperature;BME280_humidity;BME280_pressure;Samples;Min_cycle;Max_cycle;Signal;HPM_P1;HPM_P2
2021/03/24 00:00:27;;;;;;;81.40;43.30;;;5.70;70.90;;;;;;4936745;29;20407;-77
2021/03/24 00:02:56;;;;;;;78.72;41.88;;;5.70;72.30;;;;;;4936837;29;20411;-78
2021/03/24 00:05:29;;;;;;;79.35;42.03;;;5.70;72.40;;;;;;4934473;29;20434;-76
2021/03/24 00:07:55;;;;;;;69.13;40.53;;;5.70;72.10;;;;;;4936648;29;20467;-76
2021/03/24 00:10:24;;;;;;;74.10;39.67;;;5.60;72.80;;;;;;4934781;29;20431;-77
2021/03/24 00:12:50;;;;;;;71.20;38.77;;;5.70;72.20;;;;;;4948752;29;20893;-77
2021/03/24 00:15:16;;;;;;;71.63;39.60;;;5.70;72.60;;;;;;4940012;29;20419;-77
2021/03/24 00:17:41;;;;;;;79.13;41.97;;;5.70;72.00;;;;;;4922619;29;20409;-77
2021/03/24 00:20:10;;;;;;;77.05;41.28;;;5.60;72.40;;;;;;4931296;29;20406;-77
2021/03/24 00:22:36;;;;;;;74.28;40.25;;;5.60;72.40;;;;;;4959844;29;20402;-78
2021/03/24 00:25:04;;;;;;;76.53;39.95;;;5.60;72.80;;;;;;4959957;29;20443;-77
2021/03/24 00:27:30;;;;;;;75.20;39.80;;;5.60;73.00;;;;;;4955424;28;20402;-78
2021/03/24 00:29:55;;;;;;;77.97;40.63;;;5.60;72.60;;;;;;4940871;29;20777;-77
2021/03/24 00:32:21;;;;;;;71.30;38.80;;;5.60;72.30;;;;;;4934071;29;20412;-78
2021/03/24 00:34:47;;;;;;;72.70;39.30;;;5.60;71.60;;;;;;4936389;28;20419;-78
2021/03/24 00:37:12;;;;;;;71.80;38.28;;;5.60;72.10;;;;;;4937211;29;20873;-78
2021/03/24 00:39:38;;;;;;;65.40;38.55;;;5.50;72.80;;;;;;4934871;29;20447;-77
2021/03/24 00:42:05;;;;;;;74.18;39.42;;;5.60;71.90;;;;;;4931777;29;20446;-76
2021/03/24 00:44:30;;;;;;;70.53;39.17;;;5.60;72.80;;;;;;4931437;29;20495;-78
2021/03/24 00:46:57;;;;;;;74.47;39.53;;;5.50;72.80;;;;;;4930704;29;20518;-77
2021/03/24 00:49:24;;;;;;;73.72;39.65;;;5.50;73.30;;;;;;4931845;28;20388;-77
2021/03/24 00:51:50;;;;;;;76.93;40.72;;;5.60;73.10;;;;;;4933117;28;20784;-77
2021/03/24 00:54:15;;;;;;;72.17;38.97;;;5.50;72.90;;;;;;4932968;29;20410;-77
2021/03/24 00:56:41;;;;;;;70.93;39.00;;;5.50;73.10;;;;;;4933798;29;20789;-78
2021/03/24 00:59:06;;;;;;;76.33;38.47;;;5.40;73.40;;;;;;4927741;29;20485;-77
2021/03/24 01:01:32;;;;;;;72.93;38.50;;;5.50;73.70;;;;;;4918738;28;20390;-77
2021/03/24 01:03:57;;;;;;;77.83;39.47;;;5.40;73.40;;;;;;4930485;28;20407;-76
2021/03/24 01:06:23;;;;;;;71.82;37.33;;;5.40;74.60;;;;;;4945184;29;20412;-77
2021/03/24 01:08:49;;;;;;;73.70;38.83;;;5.40;75.30;;;;;;4929907;28;20405;-76
2021/03/24 01:11:14;;;;;;;73.03;38.90;;;5.40;72.90;;;;;;4918219;28;20531;-76
2021/03/24 01:13:40;;;;;;;66.73;37.57;;;5.40;73.40;;;;;;4921235;29;20407;-76
2021/03/24 01:16:05;;;;;;;71.47;39.80;;;5.40;74.40;;;;;;4924118;29;20418;-77
2021/03/24 01:18:31;;;;;;;74.53;38.70;;;5.40;73.00;;;;;;4935866;29;20506;-76
2021/03/24 01:20:56;;;;;;;69.43;38.63;;;5.40;73.20;;;;;;4953866;29;20816;-78
2021/03/24 01:23:22;;;;;;;69.60;36.75;;;5.30;74.10;;;;;;4958725;29;20448;-77
2021/03/24 01:25:48;;;;;;;68.53;37.00;;;5.30;73.70;;;;;;4972126;29;20382;-77
2021/03/24 01:28:20;;;;;;;70.03;37.65;;;5.30;73.60;;;;;;4949955;29;20411;-77
2021/03/24 01:30:46;;;;;;;69.97;37.95;;;5.30;73.60;;;;;;4935156;28;20857;-76
2021/03/24 01:33:12;;;;;;;67.45;38.78;;;5.30;74.10;;;;;;4933844;28;20422;-77
2021/03/24 01:35:39;;;;;;;68.03;36.72;;;5.30;74.70;;;;;;4932559;29;20424;-77
2021/03/24 01:38:05;;;;;;;67.45;37.47;;;5.20;73.90;;;;;;4930905;29;20925;-76
2021/03/24 01:40:44;;;;;;;72.23;38.23;;;5.30;73.50;;;;;;4929317;28;20427;-76
2021/03/24 01:43:20;;;;;;;72.20;38.08;;;5.20;73.40;;;;;;4930519;28;20408;-77
2021/03/24 01:46:24;;;;;;;71.25;37.97;;;5.20;73.70;;;;;;4935067;29;20402;-77
2021/03/24 01:49:18;;;;;;;69.07;37.70;;;5.20;73.80;;;;;;4973663;28;20499;-77
2021/03/24 01:51:55;;;;;;;71.10;35.83;;;5.20;73.40;;;;;;4955579;28;20398;-78
2021/03/24 01:54:42;;;;;;;65.55;35.20;;;5.20;72.70;;;;;;4938628;29;20412;-78
2021/03/24 01:57:20;;;;;;;64.13;35.27;;;5.20;73.00;;;;;;4938751;29;20403;-78
2021/03/24 01:59:46;;;;;;;63.28;36.22;;;5.30;72.90;;;;;;4938726;29;20451;-77
2021/03/24 02:02:18;;;;;;;65.25;32.80;;;5.20;71.80;;;;;;4949761;28;20403;-77
2021/03/24 02:04:46;;;;;;;71.40;36.05;;;5.30;72.60;;;;;;4946283;28;20395;-77
2021/03/24 02:07:18;;;;;;;59.88;34.10;;;5.30;71.00;;;;;;4937495;28;20399;-77
2021/03/24 02:09:53;;;;;;;62.20;33.50;;;5.30;71.50;;;;;;4944895;28;20443;-78
2021/03/24 02:12:53;;;;;;;61.05;34.15;;;5.20;70.50;;;;;;4938580;29;20475;-77
2021/03/24 02:15:27;;;;;;;65.65;33.92;;;5.20;70.80;;;;;;4942664;29;20412;-79
2021/03/24 02:17:53;;;;;;;59.83;33.70;;;5.30;69.80;;;;;;4938703;29;20438;-76
2021/03/24 02:20:41;;;;;;;59.45;33.45;;;5.30;69.30;;;;;;4946302;29;20993;-76
2021/03/24 02:23:22;;;;;;;61.20;33.67;;;5.20;70.30;;;;;;4958330;28;20467;-77
2021/03/24 02:25:52;;;;;;;61.03;34.60;;;5.20;70.20;;;;;;4961462;29;20386;-75
2021/03/24 02:28:19;;;;;;;60.53;33.20;;;5.20;70.00;;;;;;4964263;28;20398;-76
2021/03/24 02:30:47;;;;;;;64.10;33.63;;;5.20;70.20;;;;;;4965255;29;20398;-77
2021/03/24 02:33:21;;;;;;;59.80;32.60;;;5.20;71.00;;;;;;4927383;29;20439;-76
2021/03/24 02:35:52;;;;;;;56.33;33.53;;;5.20;70.20;;;;;;4942811;29;20408;-76
2021/03/24 02:38:22;;;;;;;64.50;33.38;;;5.10;71.00;;;;;;4945583;28;20429;-76
2021/03/24 02:40:49;;;;;;;61.17;34.50;;;5.10;70.40;;;;;;4944525;29;20757;-77
2021/03/24 02:43:15;;;;;;;68.18;35.53;;;5.00;71.20;;;;;;4942727;29;20403;-77
2021/03/24 02:45:44;;;;;;;69.05;34.05;;;5.10;70.80;;;;;;4943415;29;20438;-77
2021/03/24 02:48:14;;;;;;;59.97;33.88;;;5.00;71.90;;;;;;4944608;29;20395;-77
2021/03/24 02:50:42;;;;;;;68.90;35.00;;;5.00;72.30;;;;;;4949278;29;20447;-78
2021/03/24 02:53:09;;;;;;;61.95;34.42;;;4.90;72.30;;;;;;4946852;29;20453;-77
2021/03/24 02:55:39;;;;;;;67.87;35.13;;;4.90;73.30;;;;;;4945404;29;20891;-77
2021/03/24 02:58:05;;;;;;;68.15;34.28;;;4.90;74.00;;;;;;4945056;29;20398;-77
2021/03/24 03:00:31;;;;;;;65.82;34.50;;;4.90;72.80;;;;;;4946025;29;20419;-77
2021/03/24 03:03:04;;;;;;;71.32;35.75;;;4.80;74.20;;;;;;4945775;29;20403;-77
2021/03/24 03:05:33;;;;;;;69.38;35.40;;;4.70;75.00;;;;;;4950342;28;20396;-77
2021/03/24 03:08:08;;;;;;;70.10;34.65;;;4.70;75.40;;;;;;4966324;28;20403;-77
2021/03/24 03:10:45;;;;;;;64.25;34.95;;;4.70;75.00;;;;;;4942793;29;20770;-77
2021/03/24 03:13:20;;;;;;;65.85;34.28;;;4.70;74.90;;;;;;5008942;28;20444;-77
2021/03/24 03:15:54;;;;;;;64.07;34.30;;;4.70;74.90;;;;;;4960956;28;20863;-77
2021/03/24 03:18:31;;;;;;;67.60;34.77;;;4.60;75.70;;;;;;4934200;29;20478;-76
2021/03/24 03:21:06;;;;;;;64.07;33.63;;;4.60;75.90;;;;;;4949778;29;20461;-78
2021/03/24 03:23:34;;;;;;;63.03;34.38;;;4.70;74.40;;;;;;4955106;29;20391;-78
2021/03/24 03:26:14;;;;;;;62.00;34.05;;;4.60;75.60;;;;;;4955659;29;20879;-77
2021/03/24 03:28:43;;;;;;;62.13;33.88;;;4.50;75.80;;;;;;4953777;29;20405;-77
2021/03/24 03:31:16;;;;;;;71.93;35.00;;;4.60;75.90;;;;;;4936336;29;20427;-78
2021/03/24 03:33:48;;;;;;;66.25;35.05;;;4.50;76.30;;;;;;4937331;28;20411;-77
2021/03/24 03:36:14;;;;;;;65.32;35.40;;;4.60;77.70;;;;;;4937791;28;20521;-77
2021/03/24 03:38:42;;;;;;;67.97;34.65;;;4.60;76.70;;;;;;4949305;28;20416;-75
2021/03/24 03:41:11;;;;;;;72.13;34.22;;;4.60;76.50;;;;;;4934559;29;20388;-77
2021/03/24 03:43:40;;;;;;;64.07;33.58;;;4.50;76.40;;;;;;4943502;29;20415;-76
2021/03/24 03:46:07;;;;;;;69.07;35.92;;;4.60;76.60;;;;;;4958036;29;20404;-76
2021/03/24 03:48:33;;;;;;;60.05;33.55;;;4.50;76.30;;;;;;4943074;28;20807;-77
2021/03/24 03:51:03;;;;;;;69.85;34.78;;;4.60;77.20;;;;;;4941869;29;20399;-77
2021/03/24 03:53:45;;;;;;;63.05;34.33;;;4.50;75.20;;;;;;4951320;29;20392;-77
2021/03/24 03:56:27;;;;;;;69.15;36.17;;;4.40;76.70;;;;;;4949660;29;20391;-76
2021/03/24 03:59:09;;;;;;;67.80;35.70;;;4.30;77.90;;;;;;4926473;29;20460;-77
2021/03/24 04:01:42;;;;;;;65.18;33.92;;;4.30;78.80;;;;;;4923923;29;20393;-77
2021/03/24 04:04:16;;;;;;;69.85;34.80;;;4.40;79.20;;;;;;4926350;29;20387;-77
2021/03/24 04:06:52;;;;;;;60.77;35.00;;;4.50;77.60;;;;;;4920153;28;20517;-77
2021/03/24 04:09:19;;;;;;;72.43;36.90;;;4.40;76.80;;;;;;4921840;29;20437;-76
2021/03/24 04:11:48;;;;;;;68.68;35.53;;;4.30;77.90;;;;;;4959220;28;20423;-77
2021/03/24 04:14:17;;;;;;;68.72;34.50;;;4.20;78.90;;;;;;5041870;28;20400;-77
2021/03/24 04:16:45;;;;;;;62.92;34.97;;;4.30;79.70;;;;;;5026147;28;20392;-77
2021/03/24 04:19:14;;;;;;;68.60;35.42;;;4.30;79.90;;;;;;5026025;28;20452;-77
2021/03/24 04:21:45;;;;;;;72.18;36.70;;;4.20;78.70;;;;;;4966069;29;20709;-77
2021/03/24 04:24:15;;;;;;;68.05;35.40;;;4.20;79.40;;;;;;4955464;29;20397;-77
2021/03/24 04:26:50;;;;;;;65.65;34.13;;;4.20;79.70;;;;;;4928298;29;20895;-78
2021/03/24 04:29:29;;;;;;;64.68;35.42;;;4.20;80.00;;;;;;4913998;29;20443;-78
2021/03/24 04:31:57;;;;;;;61.88;33.65;;;4.10;80.20;;;;;;4919922;29;20771;-76
2021/03/24 04:34:23;;;;;;;76.60;36.05;;;4.20;78.70;;;;;;4925143;29;20409;-77
2021/03/24 04:36:58;;;;;;;64.35;35.42;;;4.20;79.20;;;;;;4916767;29;20475;-77
2021/03/24 04:39:35;;;;;;;73.15;36.22;;;4.20;79.50;;;;;;4920804;29;20440;-76
2021/03/24 04:42:07;;;;;;;69.82;36.25;;;4.20;78.90;;;;;;4936431;29;20480;-77
2021/03/24 04:44:35;;;;;;;64.80;34.03;;;4.20;79.40;;;;;;4938034;28;20463;-77
2021/03/24 04:47:08;;;;;;;72.00;35.60;;;4.10;79.50;;;;;;4938941;29;20396;-76
2021/03/24 04:49:42;;;;;;;70.65;36.15;;;4.20;79.90;;;;;;4934689;29;20391;-76
2021/03/24 04:52:09;;;;;;;68.72;37.35;;;4.10;79.00;;;;;;4934921;29;20452;-77
2021/03/24 04:54:36;;;;;;;67.00;34.08;;;4.10;79.40;;;;;;4932622;28;20415;-76
2021/03/24 04:57:07;;;;;;;73.97;37.53;;;4.20;79.80;;;;;;4932083;28;20416;-76
2021/03/24 04:59:38;;;;;;;74.30;36.90;;;4.10;79.70;;;;;;4936982;29;20419;-77
2021/03/24 05:02:12;;;;;;;73.25;36.22;;;4.00;80.90;;;;;;4940511;29;20391;-78
2021/03/24 05:04:45;;;;;;;73.22;37.58;;;4.00;80.70;;;;;;4937566;29;20869;-78
2021/03/24 05:07:20;;;;;;;68.03;35.33;;;4.00;80.60;;;;;;4937678;29;20430;-78
2021/03/24 05:09:46;;;;;;;69.87;36.10;;;4.00;81.70;;;;;;4937699;29;20408;-77
2021/03/24 05:12:26;;;;;;;71.55;36.25;;;4.00;80.40;;;;;;4979135;28;20408;-78
2021/03/24 05:15:13;;;;;;;68.75;37.03;;;4.00;81.20;;;;;;5016395;28;20428;-78
2021/03/24 05:17:41;;;;;;;65.78;34.47;;;3.90;81.30;;;;;;5018493;28;20731;-78
2021/03/24 05:20:22;;;;;;;68.00;35.43;;;4.00;80.80;;;;;;4994037;28;20429;-77
2021/03/24 05:22:49;;;;;;;69.30;36.75;;;4.10;80.80;;;;;;4945556;29;20895;-77
2021/03/24 05:25:36;;;;;;;69.00;34.90;;;4.00;79.70;;;;;;4923638;29;20887;-77
2021/03/24 05:28:22;;;;;;;70.32;35.53;;;4.00;80.10;;;;;;4939206;29;20397;-76
2021/03/24 05:31:04;;;;;;;71.45;36.30;;;4.00;80.70;;;;;;4923250;29;20489;-79
2021/03/24 05:33:35;;;;;;;78.28;36.63;;;4.00;80.90;;;;;;4927926;29;20901;-76
2021/03/24 05:36:05;;;;;;;66.70;35.55;;;4.00;80.60;;;;;;4921782;29;20874;-77
2021/03/24 05:38:36;;;;;;;69.60;35.70;;;4.00;80.90;;;;;;4937086;29;20827;-77
2021/03/24 05:41:23;;;;;;;68.05;34.47;;;4.00;80.70;;;;;;4956432;29;20392;-76
2021/03/24 05:44:38;;;;;;;71.22;36.03;;;4.00;80.40;;;;;;4950163;28;20384;-77
2021/03/24 05:47:24;;;;;;;69.53;36.28;;;4.00;79.40;;;;;;4909885;29;20403;-77
2021/03/24 05:50:15;;;;;;;71.25;35.90;;;4.00;79.50;;;;;;4911709;29;20402;-78
2021/03/24 05:52:59;;;;;;;68.63;35.13;;;4.00;79.90;;;;;;4942245;29;20408;-76
2021/03/24 05:55:31;;;;;;;69.15;34.50;;;4.10;78.50;;;;;;4950267;29;20399;-79
2021/03/24 05:58:03;;;;;;;64.25;33.22;;;4.20;78.00;;;;;;4949151;29;20396;-77
2021/03/24 06:00:39;;;;;;;62.20;33.40;;;4.30;76.30;;;;;;4944816;29;20521;-77
2021/03/24 06:03:16;;;;;;;66.25;34.85;;;4.40;73.60;;;;;;4943733;29;20459;-76
2021/03/24 06:06:04;;;;;;;65.70;34.90;;;4.30;74.60;;;;;;4946002;29;20481;-77
2021/03/24 06:08:48;;;;;;;68.00;33.85;;;4.30;74.30;;;;;;4986012;28;20392;-78
2021/03/24 06:11:43;;;;;;;65.70;34.38;;;4.50;72.60;;;;;;4965683;28;20400;-79
2021/03/24 06:14:33;;;;;;;68.38;35.65;;;4.40;74.10;;;;;;5022523;28;20389;-78
2021/03/24 06:17:19;;;;;;;64.85;33.25;;;4.40;75.10;;;;;;5018368;28;20412;-77
2021/03/24 06:19:48;;;;;;;68.20;33.50;;;4.50;74.40;;;;;;5008666;28;20404;-76
2021/03/24 06:22:31;;;;;;;72.17;35.87;;;4.50;71.90;;;;;;4942149;28;20400;-78
2021/03/24 06:25:07;;;;;;;65.32;32.70;;;4.50;72.30;;;;;;4937580;29;20841;-76
2021/03/24 06:27:41;;;;;;;70.57;34.83;;;4.50;71.30;;;;;;4937184;29;20463;-77
2021/03/24 06:30:34;;;;;;;71.13;35.80;;;4.50;71.90;;;;;;4935611;28;20447;-78
2021/03/24 06:33:07;;;;;;;67.93;34.50;;;4.60;71.10;;;;;;4937080;28;20498;-77
2021/03/24 06:36:15;;;;;;;68.73;34.60;;;4.60;71.00;;;;;;4936660;28;20404;-77
2021/03/24 06:39:15;;;;;;;68.20;35.42;;;4.70;69.10;;;;;;4937264;28;20391;-78
2021/03/24 06:42:00;;;;;;;68.53;34.65;;;4.80;68.20;;;;;;4963691;29;20403;-76
2021/03/24 06:44:25;;;;;;;72.32;36.85;;;4.80;68.50;;;;;;4943313;29;20402;-76
2021/03/24 06:46:58;;;;;;;80.68;36.70;;;4.80;68.10;;;;;;4937515;28;20392;-77
2021/03/24 06:50:05;;;;;;;72.80;34.83;;;4.90;67.10;;;;;;4921190;29;20433;-78
2021/03/24 06:52:50;;;;;;;65.60;33.63;;;5.00;66.60;;;;;;4940510;28;20392;-78
2021/03/24 06:55:36;;;;;;;71.40;33.92;;;5.10;65.40;;;;;;4943448;28;20451;-77
2021/03/24 06:58:20;;;;;;;69.00;33.10;;;5.10;64.80;;;;;;4945220;29;20388;-77
2021/03/24 07:01:02;;;;;;;69.55;33.70;;;5.30;64.80;;;;;;4949997;28;20408;-76
2021/03/24 07:03:52;;;;;;;62.17;32.70;;;5.40;61.30;;;;;;4928382;29;20405;-77
2021/03/24 07:06:52;;;;;;;67.15;33.60;;;5.60;61.70;;;;;;5002973;28;20489;-78
2021/03/24 07:09:32;;;;;;;68.05;33.45;;;5.70;58.90;;;;;;4919974;29;20925;-77
2021/03/24 07:12:07;;;;;;;69.72;32.33;;;5.70;60.40;;;;;;4923747;29;20406;-77
2021/03/24 07:15:02;;;;;;;65.23;32.20;;;5.80;57.30;;;;;;4949461;29;20904;-77
2021/03/24 07:17:57;;;;;;;66.45;32.65;;;5.90;58.10;;;;;;4938725;29;20403;-77
2021/03/24 07:20:52;;;;;;;66.38;32.35;;;6.00;55.30;;;;;;4946457;29;20442;-77
2021/03/24 07:23:32;;;;;;;66.60;32.70;;;6.10;58.20;;;;;;4951207;29;20413;-75
2021/03/24 07:26:28;;;;;;;63.22;32.80;;;6.10;56.00;;;;;;4933110;29;20872;-75
2021/03/24 07:29:16;;;;;;;64.97;32.70;;;6.30;54.80;;;;;;4933835;28;20441;-76
2021/03/24 07:31:48;;;;;;;62.50;32.38;;;6.40;54.00;;;;;;4935593;29;20427;-75
2021/03/24 07:34:18;;;;;;;64.38;33.08;;;6.50;53.50;;;;;;4932187;29;20411;-74
2021/03/24 07:37:06;;;;;;;64.70;34.28;;;6.50;55.60;;;;;;4932050;29;20388;-74
2021/03/24 07:39:50;;;;;;;62.73;33.23;;;6.70;52.40;;;;;;4931043;29;20441;-74
2021/03/24 07:42:39;;;;;;;60.10;32.78;;;6.70;51.60;;;;;;4930440;29;20404;-75
2021/03/24 07:45:24;;;;;;;60.35;32.00;;;7.00;51.60;;;;;;4931386;29;20418;-75
2021/03/24 07:47:52;;;;;;;57.55;32.78;;;7.10;51.50;;;;;;4927145;29;20436;-74
2021/03/24 07:50:32;;;;;;;67.15;32.72;;;7.30;49.70;;;;;;4921891;29;20804;-75
2021/03/24 07:53:19;;;;;;;61.67;32.38;;;7.50;48.90;;;;;;4931915;29;20773;-76
2021/03/24 07:56:01;;;;;;;60.70;32.83;;;7.40;47.40;;;;;;4946348;29;20418;-76
2021/03/24 07:59:14;;;;;;;58.13;31.67;;;7.40;47.30;;;;;;4932145;29;20494;-74
2021/03/24 08:02:19;;;;;;;65.43;32.45;;;7.40;46.80;;;;;;4913129;29;20855;-76
2021/03/24 08:05:06;;;;;;;64.07;32.45;;;7.50;47.30;;;;;;4913019;29;20420;-76
2021/03/24 08:07:40;;;;;;;65.47;34.10;;;7.50;48.10;;;;;;4913164;28;20472;-76
2021/03/24 08:10:28;;;;;;;61.78;31.90;;;7.70;48.80;;;;;;4919953;29;20399;-78
2021/03/24 08:13:29;;;;;;;62.70;33.03;;;7.90;44.90;;;;;;4938558;28;20412;-79
2021/03/24 08:16:30;;;;;;;64.63;32.55;;;8.00;44.80;;;;;;4946276;29;20427;-78
2021/03/24 08:19:10;;;;;;;61.97;33.10;;;8.10;44.10;;;;;;4955260;28;20425;-78
2021/03/24 08:21:51;;;;;;;62.33;31.75;;;8.20;43.90;;;;;;4967637;28;20423;-77
2021/03/24 08:24:20;;;;;;;59.23;32.30;;;8.40;44.00;;;;;;4938694;29;20444;-78
2021/03/24 08:26:55;;;;;;;65.20;33.90;;;8.60;41.50;;;;;;4938273;29;20420;-79
2021/03/24 08:29:55;;;;;;;65.45;33.25;;;8.70;42.60;;;;;;4949824;29;20756;-74
2021/03/24 08:33:00;;;;;;;63.90;32.50;;;8.80;40.10;;;;;;4912714;28;20920;-76
2021/03/24 08:35:43;;;;;;;68.65;35.15;;;9.00;40.40;;;;;;4912149;29;20401;-75
2021/03/24 08:38:17;;;;;;;57.35;32.00;;;9.20;39.90;;;;;;4912588;29;20408;-77
2021/03/24 08:40:49;;;;;;;67.45;32.13;;;9.40;39.50;;;;;;4912345;29;20409;-75
2021/03/24 08:43:29;;;;;;;61.67;32.70;;;9.60;37.30;;;;;;4916533;29;20756;-76
2021/03/24 08:46:22;;;;;;;62.78;32.10;;;9.60;36.60;;;;;;4931538;28;20765;-75
2021/03/24 08:49:16;;;;;;;59.45;32.92;;;9.50;37.50;;;;;;4946545;28;20497;-76
2021/03/24 08:51:51;;;;;;;61.92;34.03;;;9.70;38.50;;;;;;4951293;29;20744;-75
2021/03/24 08:54:25;;;;;;;69.40;33.92;;;9.70;36.00;;;;;;4953659;29;20422;-75
2021/03/24 08:57:04;;;;;;;62.10;33.17;;;9.70;35.90;;;;;;4943860;29;20423;-77
2021/03/24 08:59:46;;;;;;;71.18;34.75;;;9.90;35.70;;;;;;4936908;29;20411;-74
2021/03/24 09:03:00;;;;;;;61.88;33.63;;;9.80;35.00;;;;;;4935318;29;20400;-76
2021/03/24 09:05:37;;;;;;;64.45;32.33;;;9.90;35.60;;;;;;4962670;28;20513;-77
2021/03/24 09:08:15;;;;;;;60.85;32.72;;;10.30;33.30;;;;;;4961760;28;20896;-76
2021/03/24 09:11:03;;;;;;;71.03;34.67;;;10.30;32.50;;;;;;5036515;28;20400;-78
2021/03/24 09:13:41;;;;;;;66.20;35.30;;;10.00;34.30;;;;;;4955075;28;20422;-76
2021/03/24 09:16:46;;;;;;;65.70;34.10;;;10.10;34.70;;;;;;5007780;28;20406;-77
2021/03/24 09:20:01;;;;;;;63.47;33.90;;;10.40;34.50;;;;;;4926234;29;20792;-77
2021/03/24 09:22:47;;;;;;;70.38;34.60;;;10.80;31.80;;;;;;4945010;28;20490;-76
2021/03/24 09:25:28;;;;;;;68.80;35.40;;;10.80;32.10;;;;;;4938944;29;20416;-76
2021/03/24 09:28:17;;;;;;;71.10;35.45;;;10.80;31.30;;;;;;4950190;29;20403;-77
2021/03/24 09:31:02;;;;;;;63.60;34.30;;;11.00;28.80;;;;;;4973033;28;20481;-77
2021/03/24 09:33:56;;;;;;;66.15;35.75;;;11.10;30.20;;;;;;4940335;29;20780;-78
2021/03/24 09:36:35;;;;;;;65.75;35.15;;;11.10;28.80;;;;;;4935738;29;20399;-77
2021/03/24 09:39:28;;;;;;;76.70;36.05;;;11.30;28.30;;;;;;4937262;29;20401;-74
2021/03/24 09:42:02;;;;;;;61.35;35.00;;;11.20;28.60;;;;;;4934239;29;20473;-77
2021/03/24 09:44:35;;;;;;;74.22;36.25;;;11.40;29.30;;;;;;4920091;29;20401;-77
2021/03/24 09:47:00;;;;;;;71.15;36.33;;;11.60;27.80;;;;;;4928941;29;20420;-76
2021/03/24 09:49:35;;;;;;;69.68;36.63;;;11.80;26.00;;;;;;4968091;28;20404;-76
2021/03/24 09:52:22;;;;;;;67.40;35.70;;;11.90;25.20;;;;;;4955666;28;20400;-76
2021/03/24 09:55:33;;;;;;;73.43;37.20;;;11.90;26.00;;;;;;4933027;28;20413;-77
2021/03/24 09:58:04;;;;;;;70.22;35.90;;;12.00;25.90;;;;;;4954569;28;20416;-76
2021/03/24 10:00:34;;;;;;;73.13;37.60;;;12.20;24.70;;;;;;4933654;28;20736;-77
2021/03/24 10:03:38;;;;;;;67.70;36.22;;;12.20;26.20;;;;;;4936322;29;20469;-77
2021/03/24 10:06:07;;;;;;;62.72;32.90;;;12.30;25.10;;;;;;4938495;29;20403;-79
2021/03/24 10:08:45;;;;;;;70.05;34.30;;;12.40;24.20;;;;;;4935150;29;20499;-76
2021/03/24 10:11:22;;;;;;;70.27;35.17;;;12.40;24.10;;;;;;4935734;28;20515;-75
2021/03/24 10:13:56;;;;;;;67.97;35.97;;;12.60;24.40;;;;;;4936580;28;20429;-77
2021/03/24 10:16:32;;;;;;;69.25;36.92;;;12.50;24.30;;;;;;4934892;29;20742;-77
2021/03/24 10:19:01;;;;;;;67.13;34.72;;;12.60;24.80;;;;;;4935420;29;20427;-76
2021/03/24 10:21:41;;;;;;;69.13;36.03;;;12.50;24.40;;;;;;4946248;28;20401;-77
2021/03/24 10:24:46;;;;;;;64.93;32.75;;;12.60;25.60;;;;;;4931455;29;20779;-76
2021/03/24 10:27:18;;;;;;;61.40;31.70;;;12.80;23.50;;;;;;4941323;28;20414;-76
2021/03/24 10:30:01;;;;;;;63.92;30.42;;;12.70;22.60;;;;;;4947234;29;20490;-76
2021/03/24 10:32:30;;;;;;;64.18;33.20;;;12.90;23.20;;;;;;4942302;28;20419;-77
2021/03/24 10:35:06;;;;;;;60.80;31.30;;;13.00;23.50;;;;;;4940480;29;20411;-76
2021/03/24 10:37:43;;;;;;;58.70;30.92;;;13.30;21.30;;;;;;4947256;29;20511;-76
2021/03/24 10:40:14;;;;;;;63.47;32.88;;;13.30;20.90;;;;;;4942721;29;20574;-78
2021/03/24 10:43:24;;;;;;;64.28;33.25;;;13.30;22.10;;;;;;4944007;29;20400;-79
2021/03/24 10:46:31;;;;;;;59.33;32.78;;;13.10;22.70;;;;;;4987731;28;20411;-79
2021/03/24 10:49:00;;;;;;;62.87;33.30;;;13.00;23.20;;;;;;4942757;29;20435;-80
2021/03/24 10:51:47;;;;;;;64.00;34.63;;;13.40;21.00;;;;;;4947308;29;20415;-79
2021/03/24 10:54:25;;;;;;;71.07;35.10;;;13.40;21.90;;;;;;4943169;29;20411;-80
2021/03/24 10:57:03;;;;;;;62.95;33.80;;;13.20;22.70;;;;;;4962161;28;20430;-79
2021/03/24 10:59:32;;;;;;;70.82;34.80;;;13.30;22.70;;;;;;4938832;29;20736;-77
2021/03/24 11:02:25;;;;;;;64.50;32.70;;;13.50;21.30;;;;;;4925869;28;20495;-76
2021/03/24 11:05:04;;;;;;;63.17;31.60;;;13.80;19.70;;;;;;4927647;28;20456;-76
2021/03/24 11:07:50;;;;;;;64.32;31.65;;;13.90;19.70;;;;;;4929891;28;20410;-76
2021/03/24 11:10:46;;;;;;;62.20;29.23;;;13.80;19.30;;;;;;4930658;28;20403;-74
2021/03/24 11:13:25;;;;;;;58.45;30.50;;;14.00;18.40;;;;;;4931500;29;20506;-75
2021/03/24 11:16:08;;;;;;;55.80;29.77;;;14.00;18.20;;;;;;4931830;29;20399;-75
2021/03/24 11:18:53;;;;;;;62.63;29.75;;;14.10;18.90;;;;;;4927702;29;20394;-75
2021/03/24 11:21:31;;;;;;;63.35;30.90;;;14.10;18.70;;;;;;4919508;29;20395;-75
2021/03/24 11:24:25;;;;;;;56.50;29.60;;;14.20;18.70;;;;;;4931627;28;20420;-75
2021/03/24 11:27:11;;;;;;;62.80;30.25;;;14.20;18.70;;;;;;4934033;28;20408;-75
2021/03/24 11:29:55;;;;;;;62.80;31.65;;;14.40;18.70;;;;;;4931534;29;20403;-76
2021/03/24 11:32:37;;;;;;;63.22;31.88;;;14.40;17.80;;;;;;4943108;28;20805;-75
2021/03/24 11:35:31;;;;;;;62.85;30.60;;;14.30;18.60;;;;;;4929611;29;20404;-76
2021/03/24 11:38:05;;;;;;;61.47;30.42;;;14.60;17.60;;;;;;4935071;29;20427;-78
2021/03/24 11:40:35;;;;;;;58.67;30.00;;;14.70;17.50;;;;;;4930357;28;20839;-74
2021/03/24 11:43:07;;;;;;;53.95;30.42;;;14.70;17.70;;;;;;4938542;28;20911;-74
2021/03/24 11:45:34;;;;;;;56.38;30.20;;;14.90;17.20;;;;;;4978267;28;20841;-74
2021/03/24 11:48:52;;;;;;;59.75;30.75;;;15.00;17.10;;;;;;4925978;29;20469;-74
2021/03/24 11:51:26;;;;;;;56.13;29.40;;;15.00;17.70;;;;;;4929317;29;20416;-73
2021/03/24 11:54:11;;;;;;;58.37;30.30;;;14.90;16.90;;;;;;4930750;29;20569;-75
2021/03/24 11:56:45;;;;;;;54.58;28.10;;;15.10;16.20;;;;;;4932456;29;20399;-73
2021/03/24 11:59:26;;;;;;;65.82;30.50;;;15.30;15.80;;;;;;4930612;29;20840;-76
2021/03/24 12:02:10;;;;;;;61.08;30.55;;;15.10;15.80;;;;;;4932345;29;20411;-74
2021/03/24 12:04:41;;;;;;;57.47;29.67;;;15.10;16.00;;;;;;4932691;29;20837;-75
2021/03/24 12:07:19;;;;;;;60.88;31.33;;;15.20;16.30;;;;;;4932487;29;20487;-73
2021/03/24 12:09:45;;;;;;;54.60;29.90;;;15.20;16.10;;;;;;4932489;29;20427;-73
2021/03/24 12:12:10;;;;;;;57.47;29.53;;;15.50;15.80;;;;;;4933547;29;20518;-73
2021/03/24 12:14:38;;;;;;;63.03;31.10;;;15.70;15.50;;;;;;4936347;29;20451;-74
2021/03/24 12:17:24;;;;;;;60.45;31.55;;;15.70;14.90;;;;;;4936812;29;20467;-73
2021/03/24 12:19:50;;;;;;;55.90;31.00;;;15.70;15.30;;;;;;4932585;29;20420;-74
2021/03/24 12:22:29;;;;;;;58.57;29.53;;;15.70;15.00;;;;;;4954535;28;20402;-74
2021/03/24 12:25:13;;;;;;;61.38;32.28;;;15.70;14.70;;;;;;4923609;29;20404;-73
2021/03/24 12:27:45;;;;;;;67.78;33.47;;;15.70;14.60;;;;;;4944334;29;20407;-73
2021/03/24 12:30:40;;;;;;;62.20;33.70;;;15.60;15.80;;;;;;4930344;28;20416;-73
2021/03/24 12:33:05;;;;;;;66.55;31.45;;;15.70;15.20;;;;;;4930121;29;20404;-74
2021/03/24 12:35:32;;;;;;;66.47;31.60;;;15.80;14.80;;;;;;4930024;28;20906;-74
2021/03/24 12:38:08;;;;;;;61.30;33.25;;;16.00;14.10;;;;;;4930703;29;20487;-73
2021/03/24 12:40:45;;;;;;;64.57;32.72;;;16.10;14.30;;;;;;4914527;29;20443;-77
2021/03/24 12:43:21;;;;;;;62.78;31.48;;;16.20;14.10;;;;;;4930403;29;20408;-75
2021/03/24 12:45:47;;;;;;;63.70;31.98;;;16.20;13.50;;;;;;4930607;29;20777;-73
2021/03/24 12:48:23;;;;;;;62.17;30.92;;;16.30;13.90;;;;;;4930239;29;20395;-75
2021/03/24 12:51:02;;;;;;;66.65;30.80;;;16.20;13.80;;;;;;4918588;29;20792;-74
2021/03/24 12:53:34;;;;;;;64.05;31.85;;;16.20;13.70;;;;;;4973681;28;20521;-73
2021/03/24 12:56:20;;;;;;;62.97;32.08;;;16.20;15.10;;;;;;4964919;28;20469;-73
2021/03/24 12:59:21;;;;;;;62.47;29.90;;;16.40;13.70;;;;;;4930023;29;20388;-74
2021/03/24 13:02:00;;;;;;;56.13;30.90;;;16.50;13.00;;;;;;4913090;29;20397;-73
2021/03/24 13:04:54;;;;;;;59.90;30.60;;;16.50;13.70;;;;;;4923996;29;20828;-75
2021/03/24 13:08:05;;;;;;;60.10;31.17;;;16.60;13.00;;;;;;4929670;29;20392;-75
2021/03/24 13:10:40;;;;;;;61.03;30.80;;;16.70;12.80;;;;;;4929622;29;20535;-74
2021/03/24 13:13:36;;;;;;;61.55;30.80;;;17.00;12.60;;;;;;4928187;29;20449;-75
2021/03/24 13:16:11;;;;;;;67.00;32.20;;;17.20;11.80;;;;;;4930373;29;20434;-74
2021/03/24 13:19:12;;;;;;;56.05;30.73;;;17.30;11.80;;;;;;4929138;29;20408;-74
2021/03/24 13:21:46;;;;;;;55.42;30.13;;;17.00;11.70;;;;;;4968379;28;20409;-74
2021/03/24 13:24:37;;;;;;;57.03;28.90;;;17.30;11.50;;;;;;4934042;29;20399;-75
2021/03/24 13:27:25;;;;;;;50.80;29.17;;;17.60;10.50;;;;;;4931420;28;20457;-74